sensor_id;sensor_type;location;lat;lon;timestamp;pressure;altitude;pressure_sealevel;temperature;humidity
49943;BME280;36011;53.362;58.948;2023-07-20T00:00:06;95457.50;;;17.60;68.83
49943;BME280;36011;53.362;58.948;2023-07-20T00:03:11;95453.50;;;17.64;68.83
49943;BME280;36011;53.362;58.948;2023-07-20T00:06:18;95461.28;;;17.65;68.76
49943;BME280;36011;53.362;58.948;2023-07-20T00:09:20;95456.13;;;17.72;68.59
49943;BME280;36011;53.362;58.948;2023-07-20T00:12:22;95463.03;;;17.81;68.13
49943;BME280;36011;53.362;58.948;2023-07-20T00:15:23;95463.41;;;17.78;68.19
49943;BME280;36011;53.362;58.948;2023-07-20T00:18:24;95467.34;;;17.82;68.05
49943;BME280;36011;53.362;58.948;2023-07-20T00:21:25;95472.53;;;17.76;68.39
49943;BME280;36011;53.362;58.948;2023-07-20T00:24:28;95470.03;;;17.74;68.42
49943;BME280;36011;53.362;58.948;2023-07-20T00:27:29;95465.06;;;17.71;68.43
49943;BME280;36011;53.362;58.948;2023-07-20T00:30:35;95462.72;;;17.76;68.74
49943;BME280;36011;53.362;58.948;2023-07-20T00:33:36;95468.66;;;17.86;68.64
49943;BME280;36011;53.362;58.948;2023-07-20T00:36:38;95482.34;;;17.75;68.59
49943;BME280;36011;53.362;58.948;2023-07-20T00:39:41;95481.84;;;17.80;68.51
49943;BME280;36011;53.362;58.948;2023-07-20T00:42:42;95495.69;;;17.98;68.24
49943;BME280;36011;53.362;58.948;2023-07-20T00:45:47;95488.06;;;17.95;68.15
49943;BME280;36011;53.362;58.948;2023-07-20T00:48:51;95492.19;;;17.98;68.38
49943;BME280;36011;53.362;58.948;2023-07-20T00:51:58;95490.72;;;17.95;68.15
49943;BME280;36011;53.362;58.948;2023-07-20T00:55:02;95491.59;;;17.87;68.69
49943;BME280;36011;53.362;58.948;2023-07-20T00:58:04;95498.44;;;18.05;68.10
49943;BME280;36011;53.362;58.948;2023-07-20T01:01:10;95497.16;;;18.01;68.06
49943;BME280;36011;53.362;58.948;2023-07-20T01:04:13;95499.56;;;18.10;68.05
49943;BME280;36011;53.362;58.948;2023-07-20T01:10:25;95509.09;;;18.05;68.31
49943;BME280;36011;53.362;58.948;2023-07-20T01:13:32;95512.72;;;18.27;67.89
49943;BME280;36011;53.362;58.948;2023-07-20T01:16:36;95519.25;;;18.24;67.71
49943;BME280;36011;53.362;58.948;2023-07-20T01:19:39;95513.16;;;18.15;68.13
49943;BME280;36011;53.362;58.948;2023-07-20T01:26:02;95516.56;;;18.24;67.91
49943;BME280;36011;53.362;58.948;2023-07-20T01:32:18;95513.06;;;18.09;68.41
49943;BME280;36011;53.362;58.948;2023-07-20T01:35:19;95518.66;;;17.91;68.63
49943;BME280;36011;53.362;58.948;2023-07-20T01:38:27;95516.88;;;17.83;69.16
49943;BME280;36011;53.362;58.948;2023-07-20T01:41:29;95528.22;;;17.77;69.12
49943;BME280;36011;53.362;58.948;2023-07-20T01:44:32;95517.91;;;17.82;69.31
49943;BME280;36011;53.362;58.948;2023-07-20T01:47:33;95516.56;;;17.86;69.21
49943;BME280;36011;53.362;58.948;2023-07-20T01:50:35;95516.56;;;17.86;68.99
49943;BME280;36011;53.362;58.948;2023-07-20T01:53:36;95515.50;;;17.95;69.25
49943;BME280;36011;53.362;58.948;2023-07-20T01:56:37;95518.19;;;18.10;69.08
49943;BME280;36011;53.362;58.948;2023-07-20T01:59:38;95523.47;;;18.33;68.56
49943;BME280;36011;53.362;58.948;2023-07-20T02:02:41;95531.97;;;18.52;67.85
49943;BME280;36011;53.362;58.948;2023-07-20T02:05:43;95524.69;;;18.83;67.09
49943;BME280;36011;53.362;58.948;2023-07-20T02:08:46;95513.59;;;19.16;66.34
49943;BME280;36011;53.362;58.948;2023-07-20T02:11:50;95525.19;;;19.23;66.11
49943;BME280;36011;53.362;58.948;2023-07-20T02:14:51;95527.59;;;19.18;66.32
49943;BME280;36011;53.362;58.948;2023-07-20T02:17:52;95535.94;;;19.30;66.36
49943;BME280;36011;53.362;58.948;2023-07-20T02:20:56;95528.94;;;19.44;65.97
49943;BME280;36011;53.362;58.948;2023-07-20T02:23:57;95530.28;;;19.69;65.39
49943;BME280;36011;53.362;58.948;2023-07-20T02:27:00;95538.31;;;19.91;65.10
49943;BME280;36011;53.362;58.948;2023-07-20T02:30:02;95537.28;;;20.13;64.25
49943;BME280;36011;53.362;58.948;2023-07-20T02:33:05;95539.31;;;20.33;63.42
49943;BME280;36011;53.362;58.948;2023-07-20T02:36:09;95545.53;;;20.40;63.01
49943;BME280;36011;53.362;58.948;2023-07-20T02:39:10;95545.28;;;20.35;63.49
49943;BME280;36011;53.362;58.948;2023-07-20T02:42:11;95543.09;;;20.45;63.63
49943;BME280;36011;53.362;58.948;2023-07-20T02:45:12;95540.69;;;20.50;63.16
49943;BME280;36011;53.362;58.948;2023-07-20T02:48:13;95544.28;;;20.36;63.57
49943;BME280;36011;53.362;58.948;2023-07-20T02:51:17;95550.22;;;20.38;63.73
49943;BME280;36011;53.362;58.948;2023-07-20T02:54:18;95555.41;;;20.61;63.39
49943;BME280;36011;53.362;58.948;2023-07-20T02:57:19;95555.19;;;20.62;63.39
49943;BME280;36011;53.362;58.948;2023-07-20T03:00:23;95559.19;;;20.73;63.02
49943;BME280;36011;53.362;58.948;2023-07-20T03:03:24;95562.84;;;21.00;61.77
49943;BME280;36011;53.362;58.948;2023-07-20T03:06:25;95562.09;;;21.06;61.69
49943;BME280;36011;53.362;58.948;2023-07-20T03:09:29;95562.78;;;21.28;61.01
49943;BME280;36011;53.362;58.948;2023-07-20T03:12:30;95552.06;;;21.22;61.10
49943;BME280;36011;53.362;58.948;2023-07-20T03:15:35;95566.94;;;21.31;60.80
49943;BME280;36011;53.362;58.948;2023-07-20T03:18:38;95564.19;;;21.52;60.00
49943;BME280;36011;53.362;58.948;2023-07-20T03:21:42;95568.28;;;21.48;59.86
49943;BME280;36011;53.362;58.948;2023-07-20T03:24:45;95576.38;;;21.27;60.39
49943;BME280;36011;53.362;58.948;2023-07-20T03:27:49;95595.41;;;21.39;60.34
49943;BME280;36011;53.362;58.948;2023-07-20T03:30:57;95584.44;;;21.68;59.42
49943;BME280;36011;53.362;58.948;2023-07-20T03:33:59;95585.28;;;21.82;59.26
49943;BME280;36011;53.362;58.948;2023-07-20T03:37:01;95595.69;;;22.12;58.45
49943;BME280;36011;53.362;58.948;2023-07-20T03:40:07;95603.78;;;22.25;58.16
49943;BME280;36011;53.362;58.948;2023-07-20T03:43:11;95602.38;;;22.49;57.02
49943;BME280;36011;53.362;58.948;2023-07-20T03:46:14;95606.06;;;22.41;57.68
49943;BME280;36011;53.362;58.948;2023-07-20T03:49:15;95606.91;;;22.42;57.71
49943;BME280;36011;53.362;58.948;2023-07-20T03:52:17;95608.56;;;22.36;57.79
49943;BME280;36011;53.362;58.948;2023-07-20T03:55:18;95625.88;;;22.40;57.74
49943;BME280;36011;53.362;58.948;2023-07-20T03:58:21;95628.50;;;22.21;58.42
49943;BME280;36011;53.362;58.948;2023-07-20T04:01:27;95616.81;;;22.55;57.32
49943;BME280;36011;53.362;58.948;2023-07-20T04:04:30;95630.66;;;22.65;56.77
49943;BME280;36011;53.362;58.948;2023-07-20T04:07:34;95638.25;;;22.81;57.18
49943;BME280;36011;53.362;58.948;2023-07-20T04:10:42;95639.69;;;23.44;55.40
49943;BME280;36011;53.362;58.948;2023-07-20T04:13:45;95638.75;;;23.90;53.85
49943;BME280;36011;53.362;58.948;2023-07-20T04:16:49;95646.81;;;23.90;53.62
49943;BME280;36011;53.362;58.948;2023-07-20T04:19:54;95644.88;;;24.10;53.39
49943;BME280;36011;53.362;58.948;2023-07-20T04:22:56;95634.31;;;24.09;54.04
49943;BME280;36011;53.362;58.948;2023-07-20T04:26:00;95640.09;;;24.12;53.89
49943;BME280;36011;53.362;58.948;2023-07-20T04:29:03;95637.19;;;24.20;53.01
49943;BME280;36011;53.362;58.948;2023-07-20T04:32:04;95638.66;;;24.10;53.29
49943;BME280;36011;53.362;58.948;2023-07-20T04:35:08;95644.25;;;24.08;52.89
49943;BME280;36011;53.362;58.948;2023-07-20T04:38:09;95640.88;;;24.19;53.49
49943;BME280;36011;53.362;58.948;2023-07-20T04:41:12;95639.13;;;24.45;52.57
49943;BME280;36011;53.362;58.948;2023-07-20T04:44:15;95650.03;;;24.82;51.09
49943;BME280;36011;53.362;58.948;2023-07-20T04:47:21;95652.03;;;24.93;50.84
49943;BME280;36011;53.362;58.948;2023-07-20T04:50:30;95651.47;;;25.09;50.25
49943;BME280;36011;53.362;58.948;2023-07-20T04:53:34;95657.22;;;26.67;48.50
49943;BME280;36011;53.362;58.948;2023-07-20T04:56:37;95650.34;;;29.66;41.76
49943;BME280;36011;53.362;58.948;2023-07-20T04:59:41;95668.47;;;32.04;37.78
49943;BME280;36011;53.362;58.948;2023-07-20T05:02:47;95674.53;;;34.67;34.37
49943;BME280;36011;53.362;58.948;2023-07-20T05:05:52;95671.06;;;36.47;31.07
49943;BME280;36011;53.362;58.948;2023-07-20T05:08:55;95686.25;;;38.87;30.72
49943;BME280;36011;53.362;58.948;2023-07-20T05:11:59;95676.19;;;40.75;26.25
49943;BME280;36011;53.362;58.948;2023-07-20T05:14:59;95674.97;;;41.50;24.14
49943;BME280;36011;53.362;58.948;2023-07-20T05:18:00;95683.03;;;42.67;25.94
49943;BME280;36011;53.362;58.948;2023-07-20T05:21:05;95680.09;;;43.77;22.08
49943;BME280;36011;53.362;58.948;2023-07-20T05:24:07;95691.44;;;44.54;21.48
49943;BME280;36011;53.362;58.948;2023-07-20T05:27:08;95685.66;;;45.37;18.73
49943;BME280;36011;53.362;58.948;2023-07-20T05:30:17;95679.25;;;46.36;20.68
49943;BME280;36011;53.362;58.948;2023-07-20T05:33:21;95674.50;;;47.04;19.35
49943;BME280;36011;53.362;58.948;2023-07-20T05:36:29;95686.94;;;47.65;19.54
49943;BME280;36011;53.362;58.948;2023-07-20T05:39:33;95688.16;;;49.06;16.84
49943;BME280;36011;53.362;58.948;2023-07-20T05:42:39;95685.41;;;49.66;16.14
49943;BME280;36011;53.362;58.948;2023-07-20T05:45:43;95676.09;;;46.06;17.79
49943;BME280;36011;53.362;58.948;2023-07-20T05:48:48;95676.75;;;45.87;18.80
49943;BME280;36011;53.362;58.948;2023-07-20T05:51:54;95663.84;;;47.26;17.65
49943;BME280;36011;53.362;58.948;2023-07-20T05:54:57;95689.75;;;48.07;16.56
49943;BME280;36011;53.362;58.948;2023-07-20T05:58:04;95663.28;;;48.21;15.41
49943;BME280;36011;53.362;58.948;2023-07-20T06:01:08;95672.81;;;48.66;15.74
49943;BME280;36011;53.362;58.948;2023-07-20T06:04:14;95666.94;;;48.48;15.55
49943;BME280;36011;53.362;58.948;2023-07-20T06:07:19;95651.78;;;47.21;15.90
49943;BME280;36011;53.362;58.948;2023-07-20T06:10:25;95651.28;;;47.74;15.85
49943;BME280;36011;53.362;58.948;2023-07-20T06:13:28;95663.38;;;49.31;15.15
49943;BME280;36011;53.362;58.948;2023-07-20T06:16:34;95667.91;;;50.58;13.86
49943;BME280;36011;53.362;58.948;2023-07-20T06:19:38;95661.84;;;50.49;12.59
49943;BME280;36011;53.362;58.948;2023-07-20T06:22:42;95667.41;;;51.88;12.86
49943;BME280;36011;53.362;58.948;2023-07-20T06:25:45;95659.81;;;48.50;13.81
49943;BME280;36011;53.362;58.948;2023-07-20T06:28:49;95636.28;;;43.58;17.40
49943;BME280;36011;53.362;58.948;2023-07-20T06:31:55;95625.94;;;43.80;17.57
49943;BME280;36011;53.362;58.948;2023-07-20T06:35:17;95623.00;;;46.78;16.14
49943;BME280;36011;53.362;58.948;2023-07-20T06:38:18;95649.97;;;49.43;13.94
49943;BME280;36011;53.362;58.948;2023-07-20T06:41:24;95639.59;;;50.63;13.54
49943;BME280;36011;53.362;58.948;2023-07-20T06:44:33;95640.34;;;51.30;14.14
49943;BME280;36011;53.362;58.948;2023-07-20T06:47:39;95647.84;;;52.42;12.39
49943;BME280;36011;53.362;58.948;2023-07-20T06:50:40;95645.41;;;52.55;10.99
49943;BME280;36011;53.362;58.948;2023-07-20T06:53:48;95636.13;;;50.88;11.64
49943;BME280;36011;53.362;58.948;2023-07-20T06:56:52;95627.66;;;47.68;12.91
49943;BME280;36011;53.362;58.948;2023-07-20T06:59:58;95623.53;;;43.03;17.03
49943;BME280;36011;53.362;58.948;2023-07-20T07:03:03;95623.59;;;44.76;16.32
49943;BME280;36011;53.362;58.948;2023-07-20T07:06:04;95623.75;;;48.65;13.86
49943;BME280;36011;53.362;58.948;2023-07-20T07:09:07;95624.78;;;48.53;13.16
49943;BME280;36011;53.362;58.948;2023-07-20T07:12:14;95607.84;;;47.11;14.07
49943;BME280;36011;53.362;58.948;2023-07-20T07:15:18;95612.28;;;42.87;15.92
49943;BME280;36011;53.362;58.948;2023-07-20T07:18:21;95588.53;;;38.53;19.06
49943;BME280;36011;53.362;58.948;2023-07-20T07:21:26;95598.13;;;35.84;20.61
49943;BME280;36011;53.362;58.948;2023-07-20T07:24:32;95587.03;;;32.71;23.48
49943;BME280;36011;53.362;58.948;2023-07-20T07:27:36;95586.13;;;31.71;25.36
49943;BME280;36011;53.362;58.948;2023-07-20T07:30:42;95582.53;;;32.18;24.82
49943;BME280;36011;53.362;58.948;2023-07-20T07:33:46;95578.56;;;32.57;24.59
49943;BME280;36011;53.362;58.948;2023-07-20T07:36:47;95582.72;;;31.91;25.51
49943;BME280;36011;53.362;58.948;2023-07-20T07:39:48;95570.97;;;31.86;26.02
49943;BME280;36011;53.362;58.948;2023-07-20T07:42:52;95580.19;;;31.85;26.66
49943;BME280;36011;53.362;58.948;2023-07-20T07:45:55;95576.91;;;31.77;26.88
49943;BME280;36011;53.362;58.948;2023-07-20T07:48:57;95575.47;;;31.60;27.57
49943;BME280;36011;53.362;58.948;2023-07-20T07:52:04;95576.94;;;32.76;26.87
49943;BME280;36011;53.362;58.948;2023-07-20T07:55:05;95584.16;;;36.09;23.64
49943;BME280;36011;53.362;58.948;2023-07-20T07:58:11;95587.16;;;39.01;20.97
49943;BME280;36011;53.362;58.948;2023-07-20T08:01:12;95599.47;;;41.93;18.37
49943;BME280;36011;53.362;58.948;2023-07-20T08:04:14;95596.84;;;42.35;17.11
49943;BME280;36011;53.362;58.948;2023-07-20T08:07:15;95603.16;;;43.28;16.35
49943;BME280;36011;53.362;58.948;2023-07-20T08:10:16;95617.09;;;44.85;15.97
49943;BME280;36011;53.362;58.948;2023-07-20T08:13:20;95606.75;;;46.13;13.95
49943;BME280;36011;53.362;58.948;2023-07-20T08:16:21;95605.47;;;46.43;13.33
49943;BME280;36011;53.362;58.948;2023-07-20T08:19:25;95606.72;;;46.45;13.80
49943;BME280;36011;53.362;58.948;2023-07-20T08:22:31;95604.47;;;47.41;13.13
49943;BME280;36011;53.362;58.948;2023-07-20T08:25:34;95603.38;;;47.68;13.28
49943;BME280;36011;53.362;58.948;2023-07-20T08:28:37;95593.69;;;48.05;11.62
49943;BME280;36011;53.362;58.948;2023-07-20T08:31:40;95606.06;;;47.03;11.89
49943;BME280;36011;53.362;58.948;2023-07-20T08:34:44;95594.97;;;46.52;10.77
49943;BME280;36011;53.362;58.948;2023-07-20T08:37:45;95590.59;;;45.87;11.55
49943;BME280;36011;53.362;58.948;2023-07-20T08:40:49;95595.97;;;46.44;12.08
49943;BME280;36011;53.362;58.948;2023-07-20T08:44:01;95588.16;;;46.85;11.36
49943;BME280;36011;53.362;58.948;2023-07-20T08:47:10;95581.22;;;45.92;11.41
49943;BME280;36011;53.362;58.948;2023-07-20T08:50:17;95574.22;;;44.57;12.78
49943;BME280;36011;53.362;58.948;2023-07-20T08:53:19;95579.19;;;45.17;12.84
49943;BME280;36011;53.362;58.948;2023-07-20T08:56:23;95589.91;;;46.93;11.78
49943;BME280;36011;53.362;58.948;2023-07-20T08:59:31;95610.09;;;47.87;11.40
49943;BME280;36011;53.362;58.948;2023-07-20T09:02:37;95589.16;;;46.76;11.84
49943;BME280;36011;53.362;58.948;2023-07-20T09:05:40;95592.41;;;45.96;12.43
49943;BME280;36011;53.362;58.948;2023-07-20T09:08:44;95591.41;;;46.20;11.99
49943;BME280;36011;53.362;58.948;2023-07-20T09:11:50;95583.31;;;46.14;12.01
49943;BME280;36011;53.362;58.948;2023-07-20T09:14:57;95573.94;;;46.90;11.82
49943;BME280;36011;53.362;58.948;2023-07-20T09:18:02;95583.06;;;47.06;11.43
49943;BME280;36011;53.362;58.948;2023-07-20T09:21:09;95593.88;;;46.56;11.24
49943;BME280;36011;53.362;58.948;2023-07-20T09:24:12;95584.06;;;45.08;12.06
49943;BME280;36011;53.362;58.948;2023-07-20T09:27:16;95581.88;;;43.99;12.29
49943;BME280;36011;53.362;58.948;2023-07-20T09:30:17;95566.44;;;43.19;12.71
49943;BME280;36011;53.362;58.948;2023-07-20T09:33:23;95553.88;;;41.05;14.59
49943;BME280;36011;53.362;58.948;2023-07-20T09:36:27;95566.44;;;40.20;15.74
49943;BME280;36011;53.362;58.948;2023-07-20T09:39:41;95553.19;;;37.69;17.72
49943;BME280;36011;53.362;58.948;2023-07-20T09:42:44;95549.69;;;36.46;18.46
49943;BME280;36011;53.362;58.948;2023-07-20T09:45:47;95529.53;;;38.73;17.15
49943;BME280;36011;53.362;58.948;2023-07-20T09:48:57;95562.72;;;38.27;17.23
49943;BME280;36011;53.362;58.948;2023-07-20T09:52:00;95569.28;;;39.66;16.06
49943;BME280;36011;53.362;58.948;2023-07-20T09:55:03;95563.78;;;39.35;15.69
49943;BME280;36011;53.362;58.948;2023-07-20T09:58:09;95574.94;;;40.49;15.08
49943;BME280;36011;53.362;58.948;2023-07-20T10:01:20;95567.69;;;41.70;13.91
49943;BME280;36011;53.362;58.948;2023-07-20T10:04:27;95564.75;;;40.67;14.67
49943;BME280;36011;53.362;58.948;2023-07-20T10:07:31;95568.09;;;40.29;15.43
49943;BME280;36011;53.362;58.948;2023-07-20T10:10:36;95561.63;;;39.54;16.12
49943;BME280;36011;53.362;58.948;2023-07-20T10:13:41;95553.88;;;38.66;17.24
49943;BME280;36011;53.362;58.948;2023-07-20T10:16:48;95556.03;;;38.92;16.55
49943;BME280;36011;53.362;58.948;2023-07-20T10:19:55;95576.22;;;39.63;15.90
49943;BME280;36011;53.362;58.948;2023-07-20T10:23:00;95560.22;;;40.05;14.83
49943;BME280;36011;53.362;58.948;2023-07-20T10:26:04;95571.81;;;39.85;14.49
49943;BME280;36011;53.362;58.948;2023-07-20T10:29:08;95569.75;;;37.91;16.48
49943;BME280;36011;53.362;58.948;2023-07-20T10:32:11;95564.25;;;37.91;16.36
49943;BME280;36011;53.362;58.948;2023-07-20T10:35:15;95566.47;;;38.31;16.43
49943;BME280;36011;53.362;58.948;2023-07-20T10:38:18;95567.50;;;38.71;15.59
49943;BME280;36011;53.362;58.948;2023-07-20T10:44:30;95566.06;;;38.24;16.06
49943;BME280;36011;53.362;58.948;2023-07-20T10:47:44;95573.84;;;38.08;16.13
49943;BME280;36011;53.362;58.948;2023-07-20T10:57:24;95581.03;;;37.76;16.80
49943;BME280;36011;53.362;58.948;2023-07-20T11:00:30;95582.81;;;36.88;16.73
49943;BME280;36011;53.362;58.948;2023-07-20T11:03:38;95578.56;;;35.71;17.99
49943;BME280;36011;53.362;58.948;2023-07-20T11:06:43;95585.09;;;36.24;17.42
49943;BME280;36011;53.362;58.948;2023-07-20T11:09:48;95584.63;;;36.16;17.04
49943;BME280;36011;53.362;58.948;2023-07-20T11:16:16;95586.81;;;35.66;16.78
49943;BME280;36011;53.362;58.948;2023-07-20T11:19:18;95598.53;;;35.72;17.43
49943;BME280;36011;53.362;58.948;2023-07-20T11:22:33;95586.72;;;35.77;17.81
49943;BME280;36011;53.362;58.948;2023-07-20T11:25:40;95600.00;;;35.88;17.87
49943;BME280;36011;53.362;58.948;2023-07-20T11:28:44;95595.63;;;35.00;18.29
49943;BME280;36011;53.362;58.948;2023-07-20T11:31:52;95596.13;;;35.07;18.36
49943;BME280;36011;53.362;58.948;2023-07-20T11:34:56;95585.53;;;35.29;18.35
49943;BME280;36011;53.362;58.948;2023-07-20T11:38:01;95600.06;;;35.54;17.98
49943;BME280;36011;53.362;58.948;2023-07-20T11:41:03;95602.66;;;35.11;18.47
49943;BME280;36011;53.362;58.948;2023-07-20T11:44:04;95614.53;;;34.47;18.74
49943;BME280;36011;53.362;58.948;2023-07-20T11:47:11;95587.47;;;33.85;19.07
49943;BME280;36011;53.362;58.948;2023-07-20T11:50:18;95604.47;;;33.41;19.25
49943;BME280;36011;53.362;58.948;2023-07-20T11:53:24;95599.28;;;32.94;20.07
49943;BME280;36011;53.362;58.948;2023-07-20T11:56:25;95599.00;;;32.70;20.50
49943;BME280;36011;53.362;58.948;2023-07-20T11:59:29;95600.97;;;33.00;19.95
49943;BME280;36011;53.362;58.948;2023-07-20T12:02:35;95609.16;;;33.15;19.92
49943;BME280;36011;53.362;58.948;2023-07-20T12:05:38;95604.50;;;33.11;19.79
49943;BME280;36011;53.362;58.948;2023-07-20T12:08:42;95615.91;;;32.97;20.06
49943;BME280;36011;53.362;58.948;2023-07-20T12:11:50;95611.56;;;33.06;20.26
49943;BME280;36011;53.362;58.948;2023-07-20T12:14:51;95608.81;;;33.47;19.80
49943;BME280;36011;53.362;58.948;2023-07-20T12:17:59;95602.31;;;33.43;19.78
49943;BME280;36011;53.362;58.948;2023-07-20T12:21:05;95614.56;;;32.90;20.79
49943;BME280;36011;53.362;58.948;2023-07-20T12:24:11;95609.38;;;32.83;20.77
49943;BME280;36011;53.362;58.948;2023-07-20T12:27:15;95626.84;;;33.07;20.82
49943;BME280;36011;53.362;58.948;2023-07-20T12:30:17;95620.28;;;33.54;20.39
49943;BME280;36011;53.362;58.948;2023-07-20T12:33:24;95620.28;;;33.65;20.48
49943;BME280;36011;53.362;58.948;2023-07-20T12:36:25;95618.59;;;33.74;20.29
49943;BME280;36011;53.362;58.948;2023-07-20T12:39:29;95620.44;;;33.99;19.97
49943;BME280;36011;53.362;58.948;2023-07-20T12:42:35;95628.44;;;33.75;20.37
49943;BME280;36011;53.362;58.948;2023-07-20T12:45:36;95630.13;;;33.09;20.71
49943;BME280;36011;53.362;58.948;2023-07-20T12:48:42;95637.63;;;32.46;21.45
49943;BME280;36011;53.362;58.948;2023-07-20T12:51:49;95628.69;;;31.93;21.80
49943;BME280;36011;53.362;58.948;2023-07-20T12:54:55;95631.84;;;31.74;22.06
49943;BME280;36011;53.362;58.948;2023-07-20T12:58:01;95626.56;;;31.20;22.74
49943;BME280;36011;53.362;58.948;2023-07-20T13:01:05;95625.44;;;30.84;23.05
49943;BME280;36011;53.362;58.948;2023-07-20T13:04:08;95642.78;;;30.56;23.34
49943;BME280;36011;53.362;58.948;2023-07-20T13:07:13;95639.84;;;30.13;24.22
49943;BME280;36011;53.362;58.948;2023-07-20T13:10:33;95631.63;;;29.64;24.64
49943;BME280;36011;53.362;58.948;2023-07-20T13:13:39;95637.88;;;29.14;25.55
49943;BME280;36011;53.362;58.948;2023-07-20T13:16:45;95644.94;;;29.15;25.67
49943;BME280;36011;53.362;58.948;2023-07-20T13:19:53;95637.88;;;29.31;26.26
49943;BME280;36011;53.362;58.948;2023-07-20T13:22:54;95651.31;;;29.60;25.43
49943;BME280;36011;53.362;58.948;2023-07-20T13:26:01;95650.34;;;29.66;25.24
49943;BME280;36011;53.362;58.948;2023-07-20T13:29:07;95656.44;;;29.39;25.33
49943;BME280;36011;53.362;58.948;2023-07-20T13:32:13;95669.22;;;28.93;25.95
49943;BME280;36011;53.362;58.948;2023-07-20T13:35:23;95661.28;;;28.75;26.12
49943;BME280;36011;53.362;58.948;2023-07-20T13:38:26;95669.81;;;28.67;26.28
49943;BME280;36011;53.362;58.948;2023-07-20T13:41:33;95667.03;;;28.09;26.89
49943;BME280;36011;53.362;58.948;2023-07-20T13:44:39;95678.63;;;27.81;27.23
49943;BME280;36011;53.362;58.948;2023-07-20T13:47:43;95671.09;;;27.71;27.58
49943;BME280;36011;53.362;58.948;2023-07-20T13:50:46;95681.06;;;27.36;28.06
49943;BME280;36011;53.362;58.948;2023-07-20T13:53:50;95689.63;;;27.21;28.11
49943;BME280;36011;53.362;58.948;2023-07-20T13:56:54;95682.22;;;27.16;28.40
49943;BME280;36011;53.362;58.948;2023-07-20T14:00:03;95689.00;;;27.07;28.45
49943;BME280;36011;53.362;58.948;2023-07-20T14:03:09;95693.66;;;27.00;28.72
49943;BME280;36011;53.362;58.948;2023-07-20T14:06:13;95686.81;;;26.85;28.78
49943;BME280;36011;53.362;58.948;2023-07-20T14:09:14;95694.78;;;26.80;28.59
49943;BME280;36011;53.362;58.948;2023-07-20T14:12:20;95694.06;;;26.73;28.70
49943;BME280;36011;53.362;58.948;2023-07-20T14:15:24;95696.06;;;26.48;28.67
49943;BME280;36011;53.362;58.948;2023-07-20T14:18:25;95704.66;;;26.38;28.91
49943;BME280;36011;53.362;58.948;2023-07-20T14:21:30;95705.16;;;26.47;29.22
49943;BME280;36011;53.362;58.948;2023-07-20T14:24:32;95711.41;;;26.47;29.02
49943;BME280;36011;53.362;58.948;2023-07-20T14:27:35;95719.59;;;26.22;29.59
49943;BME280;36011;53.362;58.948;2023-07-20T14:30:39;95718.56;;;26.05;29.73
49943;BME280;36011;53.362;58.948;2023-07-20T14:33:42;95716.63;;;25.93;29.91
49943;BME280;36011;53.362;58.948;2023-07-20T14:36:47;95716.41;;;25.70;30.49
49943;BME280;36011;53.362;58.948;2023-07-20T14:39:54;95718.88;;;25.71;30.91
49943;BME280;36011;53.362;58.948;2023-07-20T14:42:57;95716.81;;;25.48;31.33
49943;BME280;36011;53.362;58.948;2023-07-20T14:46:03;95719.63;;;25.35;31.53
49943;BME280;36011;53.362;58.948;2023-07-20T14:49:07;95729.75;;;25.15;31.54
49943;BME280;36011;53.362;58.948;2023-07-20T14:52:10;95726.16;;;24.89;31.58
49943;BME280;36011;53.362;58.948;2023-07-20T14:55:12;95733.34;;;24.63;32.90
49943;BME280;36011;53.362;58.948;2023-07-20T14:58:15;95730.53;;;24.45;33.02
49943;BME280;36011;53.362;58.948;2023-07-20T15:01:19;95733.09;;;24.27;32.83
49943;BME280;36011;53.362;58.948;2023-07-20T15:04:19;95732.06;;;24.14;33.13
49943;BME280;36011;53.362;58.948;2023-07-20T15:07:21;95734.81;;;23.94;33.21
49943;BME280;36011;53.362;58.948;2023-07-20T15:10:27;95742.09;;;23.81;33.61
49943;BME280;36011;53.362;58.948;2023-07-20T15:13:34;95743.97;;;23.73;33.80
49943;BME280;36011;53.362;58.948;2023-07-20T15:16:40;95755.31;;;23.62;33.88
49943;BME280;36011;53.362;58.948;2023-07-20T15:19:47;95752.44;;;23.57;33.97
49943;BME280;36011;53.362;58.948;2023-07-20T15:22:50;95754.28;;;23.57;34.15
49943;BME280;36011;53.362;58.948;2023-07-20T15:25:59;95752.22;;;23.52;34.24
49943;BME280;36011;53.362;58.948;2023-07-20T15:29:02;95754.91;;;23.32;34.94
49943;BME280;36011;53.362;58.948;2023-07-20T15:32:06;95756.13;;;23.03;35.18
49943;BME280;36011;53.362;58.948;2023-07-20T15:35:07;95759.56;;;22.83;35.47
49943;BME280;36011;53.362;58.948;2023-07-20T15:38:09;95757.25;;;22.67;36.15
49943;BME280;36011;53.362;58.948;2023-07-20T15:41:12;95755.38;;;22.54;36.39
49943;BME280;36011;53.362;58.948;2023-07-20T15:44:17;95758.22;;;22.39;36.69
49943;BME280;36011;53.362;58.948;2023-07-20T15:47:17;95762.69;;;22.26;36.89
49943;BME280;36011;53.362;58.948;2023-07-20T15:50:21;95762.59;;;22.12;37.33
49943;BME280;36011;53.362;58.948;2023-07-20T15:53:27;95771.59;;;21.98;37.96
49943;BME280;36011;53.362;58.948;2023-07-20T15:56:33;95769.84;;;21.77;37.75
49943;BME280;36011;53.362;58.948;2023-07-20T15:59:37;95765.34;;;21.56;39.80
49943;BME280;36011;53.362;58.948;2023-07-20T16:02:44;95770.81;;;21.41;38.76
49943;BME280;36011;53.362;58.948;2023-07-20T16:05:48;95780.91;;;21.24;38.95
49943;BME280;36011;53.362;58.948;2023-07-20T16:08:54;95773.97;;;21.08;39.54
49943;BME280;36011;53.362;58.948;2023-07-20T16:11:57;95784.81;;;21.00;40.62
49943;BME280;36011;53.362;58.948;2023-07-20T16:15:04;95787.66;;;20.77;42.69
49943;BME280;36011;53.362;58.948;2023-07-20T16:18:05;95797.13;;;20.58;41.18
49943;BME280;36011;53.362;58.948;2023-07-20T16:21:10;95787.50;;;20.49;41.43
49943;BME280;36011;53.362;58.948;2023-07-20T16:24:13;95790.31;;;20.41;41.83